sensor_id;sensor_type;location;lat;lon;timestamp;P1;durP1;ratioP1;P2;durP2;ratioP2
41653;SDS011;68687;52.030;7.110;2023-08-21T00:01:21;10.88;;;6.90;;
41653;SDS011;68687;52.030;7.110;2023-08-21T00:03:46;11.65;;;5.38;;
41653;SDS011;68687;52.030;7.110;2023-08-21T00:06:11;8.32;;;4.85;;
41653;SDS011;68687;52.030;7.110;2023-08-21T00:08:43;10.05;;;4.90;;
41653;SDS011;68687;52.030;7.110;2023-08-21T00:11:08;8.68;;;4.55;;
41653;SDS011;68687;52.030;7.110;2023-08-21T00:13:33;11.77;;;5.28;;
41653;SDS011;68687;52.030;7.110;2023-08-21T00:16:05;6.90;;;4.88;;
41653;SDS011;68687;52.030;7.110;2023-08-21T00:18:33;9.45;;;4.97;;
41653;SDS011;68687;52.030;7.110;2023-08-21T00:21:05;8.20;;;4.93;;
41653;SDS011;68687;52.030;7.110;2023-08-21T00:23:30;7.63;;;4.25;;
41653;SDS011;68687;52.030;7.110;2023-08-21T00:25:59;8.60;;;5.00;;
41653;SDS011;68687;52.030;7.110;2023-08-21T00:28:24;5.30;;;4.40;;
41653;SDS011;68687;52.030;7.110;2023-08-21T00:30:59;10.63;;;4.55;;
41653;SDS011;68687;52.030;7.110;2023-08-21T00:33:44;5.80;;;4.03;;
41653;SDS011;68687;52.030;7.110;2023-08-21T00:36:09;5.03;;;3.90;;
41653;SDS011;68687;52.030;7.110;2023-08-21T00:38:35;8.13;;;4.60;;
41653;SDS011;68687;52.030;7.110;2023-08-21T00:41:00;7.85;;;4.45;;
41653;SDS011;68687;52.030;7.110;2023-08-21T00:43:25;6.15;;;4.07;;
41653;SDS011;68687;52.030;7.110;2023-08-21T00:45:50;8.60;;;4.32;;
41653;SDS011;68687;52.030;7.110;2023-08-21T00:48:19;8.05;;;3.83;;
41653;SDS011;68687;52.030;7.110;2023-08-21T00:50:50;8.05;;;4.45;;
41653;SDS011;68687;52.030;7.110;2023-08-21T00:53:16;10.35;;;5.22;;
41653;SDS011;68687;52.030;7.110;2023-08-21T00:55:44;9.23;;;5.38;;
41653;SDS011;68687;52.030;7.110;2023-08-21T00:58:10;12.88;;;5.50;;
41653;SDS011;68687;52.030;7.110;2023-08-21T01:00:39;12.23;;;6.18;;
41653;SDS011;68687;52.030;7.110;2023-08-21T01:03:08;11.02;;;5.05;;
41653;SDS011;68687;52.030;7.110;2023-08-21T01:05:34;7.90;;;5.28;;
41653;SDS011;68687;52.030;7.110;2023-08-21T01:08:06;10.60;;;5.50;;
41653;SDS011;68687;52.030;7.110;2023-08-21T01:10:57;8.98;;;5.90;;
41653;SDS011;68687;52.030;7.110;2023-08-21T01:13:37;7.65;;;5.65;;
41653;SDS011;68687;52.030;7.110;2023-08-21T01:16:03;8.55;;;5.32;;
41653;SDS011;68687;52.030;7.110;2023-08-21T01:18:34;9.00;;;5.50;;
41653;SDS011;68687;52.030;7.110;2023-08-21T01:21:01;12.68;;;5.00;;
41653;SDS011;68687;52.030;7.110;2023-08-21T01:23:47;6.25;;;5.38;;
41653;SDS011;68687;52.030;7.110;2023-08-21T01:26:12;9.85;;;5.20;;
41653;SDS011;68687;52.030;7.110;2023-08-21T01:28:38;10.65;;;5.25;;
41653;SDS011;68687;52.030;7.110;2023-08-21T01:31:11;7.07;;;4.90;;
41653;SDS011;68687;52.030;7.110;2023-08-21T01:33:46;7.32;;;4.22;;
41653;SDS011;68687;52.030;7.110;2023-08-21T01:36:15;9.73;;;4.70;;
41653;SDS011;68687;52.030;7.110;2023-08-21T01:38:52;10.75;;;4.47;;
41653;SDS011;68687;52.030;7.110;2023-08-21T01:41:18;10.57;;;4.70;;
41653;SDS011;68687;52.030;7.110;2023-08-21T01:43:43;8.57;;;4.32;;
41653;SDS011;68687;52.030;7.110;2023-08-21T01:46:09;7.97;;;4.18;;
41653;SDS011;68687;52.030;7.110;2023-08-21T01:48:38;9.05;;;4.28;;
41653;SDS011;68687;52.030;7.110;2023-08-21T01:51:06;6.80;;;4.30;;
41653;SDS011;68687;52.030;7.110;2023-08-21T01:53:34;6.95;;;4.03;;
41653;SDS011;68687;52.030;7.110;2023-08-21T01:55:59;6.95;;;3.50;;
41653;SDS011;68687;52.030;7.110;2023-08-21T01:58:25;10.23;;;4.07;;
41653;SDS011;68687;52.030;7.110;2023-08-21T02:00:50;5.22;;;3.90;;
41653;SDS011;68687;52.030;7.110;2023-08-21T02:03:24;7.03;;;3.83;;
41653;SDS011;68687;52.030;7.110;2023-08-21T02:05:50;8.20;;;3.92;;
41653;SDS011;68687;52.030;7.110;2023-08-21T02:08:16;11.00;;;3.83;;
41653;SDS011;68687;52.030;7.110;2023-08-21T02:10:49;4.18;;;3.33;;
41653;SDS011;68687;52.030;7.110;2023-08-21T02:13:15;9.63;;;4.13;;
41653;SDS011;68687;52.030;7.110;2023-08-21T02:15:41;6.50;;;3.70;;
41653;SDS011;68687;52.030;7.110;2023-08-21T02:18:06;6.20;;;3.92;;
41653;SDS011;68687;52.030;7.110;2023-08-21T02:20:34;13.93;;;4.00;;
41653;SDS011;68687;52.030;7.110;2023-08-21T02:23:00;5.82;;;3.85;;
41653;SDS011;68687;52.030;7.110;2023-08-21T02:25:25;6.90;;;4.03;;
41653;SDS011;68687;52.030;7.110;2023-08-21T02:30:40;5.47;;;4.35;;
41653;SDS011;68687;52.030;7.110;2023-08-21T02:33:06;4.05;;;3.50;;
41653;SDS011;68687;52.030;7.110;2023-08-21T02:35:31;8.55;;;4.25;;
41653;SDS011;68687;52.030;7.110;2023-08-21T02:37:57;7.78;;;3.40;;
41653;SDS011;68687;52.030;7.110;2023-08-21T02:40:22;8.77;;;4.13;;
41653;SDS011;68687;52.030;7.110;2023-08-21T02:42:47;11.50;;;3.75;;
41653;SDS011;68687;52.030;7.110;2023-08-21T02:45:12;8.70;;;3.95;;
41653;SDS011;68687;52.030;7.110;2023-08-21T02:47:38;6.50;;;3.72;;
41653;SDS011;68687;52.030;7.110;2023-08-21T02:50:04;8.95;;;4.10;;
41653;SDS011;68687;52.030;7.110;2023-08-21T02:52:31;8.82;;;4.22;;
41653;SDS011;68687;52.030;7.110;2023-08-21T02:54:57;8.80;;;4.60;;
41653;SDS011;68687;52.030;7.110;2023-08-21T02:57:23;15.18;;;5.65;;
41653;SDS011;68687;52.030;7.110;2023-08-21T02:59:49;8.25;;;5.00;;
41653;SDS011;68687;52.030;7.110;2023-08-21T03:02:15;10.07;;;4.82;;
41653;SDS011;68687;52.030;7.110;2023-08-21T03:04:40;11.85;;;4.43;;
41653;SDS011;68687;52.030;7.110;2023-08-21T03:07:05;7.38;;;4.90;;
41653;SDS011;68687;52.030;7.110;2023-08-21T03:09:30;7.80;;;4.93;;
41653;SDS011;68687;52.030;7.110;2023-08-21T03:11:56;7.60;;;5.00;;
41653;SDS011;68687;52.030;7.110;2023-08-21T03:14:21;10.57;;;5.40;;
41653;SDS011;68687;52.030;7.110;2023-08-21T03:16:46;9.07;;;5.20;;
41653;SDS011;68687;52.030;7.110;2023-08-21T03:19:12;6.55;;;5.25;;
41653;SDS011;68687;52.030;7.110;2023-08-21T03:21:37;7.43;;;4.43;;
41653;SDS011;68687;52.030;7.110;2023-08-21T03:24:02;8.10;;;4.43;;
41653;SDS011;68687;52.030;7.110;2023-08-21T03:26:28;7.53;;;5.15;;
41653;SDS011;68687;52.030;7.110;2023-08-21T03:28:53;11.50;;;4.93;;
41653;SDS011;68687;52.030;7.110;2023-08-21T03:31:18;6.35;;;4.30;;
41653;SDS011;68687;52.030;7.110;2023-08-21T03:33:43;7.15;;;4.35;;
41653;SDS011;68687;52.030;7.110;2023-08-21T03:36:09;10.23;;;4.63;;
41653;SDS011;68687;52.030;7.110;2023-08-21T03:38:34;11.15;;;5.30;;
41653;SDS011;68687;52.030;7.110;2023-08-21T03:40:59;9.85;;;4.90;;
41653;SDS011;68687;52.030;7.110;2023-08-21T03:43:25;10.55;;;4.68;;
41653;SDS011;68687;52.030;7.110;2023-08-21T03:45:50;13.98;;;4.85;;
41653;SDS011;68687;52.030;7.110;2023-08-21T03:48:15;11.13;;;5.00;;
41653;SDS011;68687;52.030;7.110;2023-08-21T03:50:41;6.78;;;4.50;;
41653;SDS011;68687;52.030;7.110;2023-08-21T03:53:06;5.57;;;4.72;;
41653;SDS011;68687;52.030;7.110;2023-08-21T03:55:31;10.25;;;5.00;;
41653;SDS011;68687;52.030;7.110;2023-08-21T03:57:57;6.40;;;5.00;;
41653;SDS011;68687;52.030;7.110;2023-08-21T04:00:22;7.72;;;4.65;;
41653;SDS011;68687;52.030;7.110;2023-08-21T04:02:47;9.38;;;4.72;;
41653;SDS011;68687;52.030;7.110;2023-08-21T04:05:12;7.97;;;4.45;;
41653;SDS011;68687;52.030;7.110;2023-08-21T04:07:38;15.35;;;5.18;;
41653;SDS011;68687;52.030;7.110;2023-08-21T04:10:04;11.63;;;5.07;;
41653;SDS011;68687;52.030;7.110;2023-08-21T04:12:30;9.00;;;5.13;;
41653;SDS011;68687;52.030;7.110;2023-08-21T04:14:55;8.18;;;5.20;;
41653;SDS011;68687;52.030;7.110;2023-08-21T04:17:24;10.25;;;5.78;;
41653;SDS011;68687;52.030;7.110;2023-08-21T04:19:49;9.27;;;4.65;;
41653;SDS011;68687;52.030;7.110;2023-08-21T04:22:15;12.73;;;5.53;;
41653;SDS011;68687;52.030;7.110;2023-08-21T04:24:41;8.20;;;5.50;;
41653;SDS011;68687;52.030;7.110;2023-08-21T04:27:07;10.18;;;5.90;;
41653;SDS011;68687;52.030;7.110;2023-08-21T04:29:32;8.10;;;4.70;;
41653;SDS011;68687;52.030;7.110;2023-08-21T04:31:57;13.52;;;5.55;;
41653;SDS011;68687;52.030;7.110;2023-08-21T04:34:23;9.25;;;4.90;;
41653;SDS011;68687;52.030;7.110;2023-08-21T04:36:48;7.88;;;5.75;;
41653;SDS011;68687;52.030;7.110;2023-08-21T04:39:14;9.18;;;4.88;;
41653;SDS011;68687;52.030;7.110;2023-08-21T04:41:40;8.77;;;4.28;;
41653;SDS011;68687;52.030;7.110;2023-08-21T04:44:05;5.88;;;4.10;;
41653;SDS011;68687;52.030;7.110;2023-08-21T04:46:31;10.45;;;5.00;;
41653;SDS011;68687;52.030;7.110;2023-08-21T04:48:56;8.18;;;5.10;;
41653;SDS011;68687;52.030;7.110;2023-08-21T04:51:21;8.43;;;4.80;;
41653;SDS011;68687;52.030;7.110;2023-08-21T04:53:47;10.18;;;5.20;;
41653;SDS011;68687;52.030;7.110;2023-08-21T04:56:12;13.85;;;5.65;;
41653;SDS011;68687;52.030;7.110;2023-08-21T04:58:37;9.10;;;4.93;;
41653;SDS011;68687;52.030;7.110;2023-08-21T05:01:04;9.82;;;5.28;;
41653;SDS011;68687;52.030;7.110;2023-08-21T05:03:30;8.50;;;5.13;;
41653;SDS011;68687;52.030;7.110;2023-08-21T05:05:55;10.27;;;5.47;;
41653;SDS011;68687;52.030;7.110;2023-08-21T05:08:22;9.07;;;5.05;;
41653;SDS011;68687;52.030;7.110;2023-08-21T05:10:48;9.63;;;5.30;;
41653;SDS011;68687;52.030;7.110;2023-08-21T05:13:13;7.22;;;4.93;;
41653;SDS011;68687;52.030;7.110;2023-08-21T05:15:42;13.50;;;5.78;;
41653;SDS011;68687;52.030;7.110;2023-08-21T05:18:07;15.48;;;5.18;;
41653;SDS011;68687;52.030;7.110;2023-08-21T05:20:33;10.70;;;6.18;;
41653;SDS011;68687;52.030;7.110;2023-08-21T05:22:58;10.43;;;5.25;;
41653;SDS011;68687;52.030;7.110;2023-08-21T05:25:23;11.65;;;5.35;;
41653;SDS011;68687;52.030;7.110;2023-08-21T05:27:49;9.15;;;5.72;;
41653;SDS011;68687;52.030;7.110;2023-08-21T05:30:14;8.85;;;4.82;;
41653;SDS011;68687;52.030;7.110;2023-08-21T05:32:40;10.52;;;6.32;;
41653;SDS011;68687;52.030;7.110;2023-08-21T05:35:05;7.35;;;5.90;;
41653;SDS011;68687;52.030;7.110;2023-08-21T05:37:31;7.53;;;4.68;;
41653;SDS011;68687;52.030;7.110;2023-08-21T05:39:56;11.45;;;5.13;;
41653;SDS011;68687;52.030;7.110;2023-08-21T05:42:21;11.52;;;4.90;;
41653;SDS011;68687;52.030;7.110;2023-08-21T05:44:47;5.57;;;4.20;;
41653;SDS011;68687;52.030;7.110;2023-08-21T05:47:12;8.32;;;4.97;;
41653;SDS011;68687;52.030;7.110;2023-08-21T05:49:37;12.30;;;5.15;;
41653;SDS011;68687;52.030;7.110;2023-08-21T05:52:03;8.98;;;5.10;;
41653;SDS011;68687;52.030;7.110;2023-08-21T05:54:28;8.13;;;5.72;;
41653;SDS011;68687;52.030;7.110;2023-08-21T05:56:55;10.73;;;5.63;;
41653;SDS011;68687;52.030;7.110;2023-08-21T05:59:30;14.55;;;5.82;;
41653;SDS011;68687;52.030;7.110;2023-08-21T06:01:56;9.30;;;5.10;;
41653;SDS011;68687;52.030;7.110;2023-08-21T06:04:21;10.40;;;5.72;;
41653;SDS011;68687;52.030;7.110;2023-08-21T06:06:47;10.02;;;5.93;;
41653;SDS011;68687;52.030;7.110;2023-08-21T06:09:12;9.95;;;5.22;;
41653;SDS011;68687;52.030;7.110;2023-08-21T06:11:38;8.63;;;5.05;;
41653;SDS011;68687;52.030;7.110;2023-08-21T06:14:03;10.18;;;5.93;;
41653;SDS011;68687;52.030;7.110;2023-08-21T06:16:29;9.27;;;5.45;;
41653;SDS011;68687;52.030;7.110;2023-08-21T06:18:54;10.75;;;6.63;;
41653;SDS011;68687;52.030;7.110;2023-08-21T06:21:19;11.30;;;5.90;;
41653;SDS011;68687;52.030;7.110;2023-08-21T06:23:45;13.15;;;6.78;;
41653;SDS011;68687;52.030;7.110;2023-08-21T06:26:10;9.77;;;6.18;;
41653;SDS011;68687;52.030;7.110;2023-08-21T06:28:35;14.50;;;6.78;;
41653;SDS011;68687;52.030;7.110;2023-08-21T06:31:01;8.02;;;7.03;;
41653;SDS011;68687;52.030;7.110;2023-08-21T06:33:32;11.27;;;6.45;;
41653;SDS011;68687;52.030;7.110;2023-08-21T06:35:58;10.38;;;5.93;;
41653;SDS011;68687;52.030;7.110;2023-08-21T06:38:23;9.10;;;5.97;;
41653;SDS011;68687;52.030;7.110;2023-08-21T06:40:48;7.22;;;5.80;;
41653;SDS011;68687;52.030;7.110;2023-08-21T06:43:13;10.00;;;5.63;;
41653;SDS011;68687;52.030;7.110;2023-08-21T06:45:39;10.45;;;5.47;;
41653;SDS011;68687;52.030;7.110;2023-08-21T06:48:04;8.30;;;5.63;;
41653;SDS011;68687;52.030;7.110;2023-08-21T06:50:30;10.45;;;6.13;;
41653;SDS011;68687;52.030;7.110;2023-08-21T06:52:55;8.68;;;5.65;;
41653;SDS011;68687;52.030;7.110;2023-08-21T06:55:20;16.90;;;5.30;;
41653;SDS011;68687;52.030;7.110;2023-08-21T06:57:46;7.18;;;5.60;;
41653;SDS011;68687;52.030;7.110;2023-08-21T07:00:11;15.73;;;6.28;;
41653;SDS011;68687;52.030;7.110;2023-08-21T07:02:37;16.05;;;5.25;;
41653;SDS011;68687;52.030;7.110;2023-08-21T07:05:02;14.13;;;5.55;;
41653;SDS011;68687;52.030;7.110;2023-08-21T07:07:28;15.23;;;5.88;;
41653;SDS011;68687;52.030;7.110;2023-08-21T07:09:53;9.13;;;5.85;;
41653;SDS011;68687;52.030;7.110;2023-08-21T07:12:18;14.70;;;6.35;;
41653;SDS011;68687;52.030;7.110;2023-08-21T07:14:44;9.45;;;5.63;;
41653;SDS011;68687;52.030;7.110;2023-08-21T07:17:09;11.63;;;5.10;;
41653;SDS011;68687;52.030;7.110;2023-08-21T07:19:34;8.68;;;4.82;;
41653;SDS011;68687;52.030;7.110;2023-08-21T07:21:59;11.50;;;5.88;;
41653;SDS011;68687;52.030;7.110;2023-08-21T07:24:25;11.23;;;5.10;;
41653;SDS011;68687;52.030;7.110;2023-08-21T07:26:50;15.18;;;5.35;;
41653;SDS011;68687;52.030;7.110;2023-08-21T07:29:15;13.88;;;4.68;;
41653;SDS011;68687;52.030;7.110;2023-08-21T07:31:41;7.18;;;4.40;;
41653;SDS011;68687;52.030;7.110;2023-08-21T07:34:06;6.25;;;4.55;;
41653;SDS011;68687;52.030;7.110;2023-08-21T07:36:31;9.13;;;4.97;;
41653;SDS011;68687;52.030;7.110;2023-08-21T07:38:57;11.40;;;5.45;;
41653;SDS011;68687;52.030;7.110;2023-08-21T07:41:22;7.50;;;4.43;;
41653;SDS011;68687;52.030;7.110;2023-08-21T07:43:47;12.57;;;5.00;;
41653;SDS011;68687;52.030;7.110;2023-08-21T07:46:13;7.87;;;4.33;;
41653;SDS011;68687;52.030;7.110;2023-08-21T07:48:40;10.63;;;4.90;;
41653;SDS011;68687;52.030;7.110;2023-08-21T07:51:06;10.82;;;4.45;;
41653;SDS011;68687;52.030;7.110;2023-08-21T07:53:31;7.13;;;4.05;;
41653;SDS011;68687;52.030;7.110;2023-08-21T07:55:57;11.30;;;4.13;;
41653;SDS011;68687;52.030;7.110;2023-08-21T07:58:23;6.13;;;4.00;;
41653;SDS011;68687;52.030;7.110;2023-08-21T08:00:48;8.73;;;4.17;;
41653;SDS011;68687;52.030;7.110;2023-08-21T08:03:14;11.70;;;4.50;;
41653;SDS011;68687;52.030;7.110;2023-08-21T08:05:39;9.95;;;3.72;;
41653;SDS011;68687;52.030;7.110;2023-08-21T08:08:05;9.93;;;4.15;;
41653;SDS011;68687;52.030;7.110;2023-08-21T08:10:31;8.25;;;3.78;;
41653;SDS011;68687;52.030;7.110;2023-08-21T08:12:56;11.68;;;4.07;;
41653;SDS011;68687;52.030;7.110;2023-08-21T08:15:22;6.10;;;3.60;;
41653;SDS011;68687;52.030;7.110;2023-08-21T08:17:47;6.38;;;3.88;;
41653;SDS011;68687;52.030;7.110;2023-08-21T08:20:17;9.00;;;4.20;;
41653;SDS011;68687;52.030;7.110;2023-08-21T08:22:42;13.70;;;4.53;;
41653;SDS011;68687;52.030;7.110;2023-08-21T08:25:07;11.18;;;4.72;;
41653;SDS011;68687;52.030;7.110;2023-08-21T08:27:33;13.45;;;4.57;;
41653;SDS011;68687;52.030;7.110;2023-08-21T08:29:59;7.55;;;3.28;;
41653;SDS011;68687;52.030;7.110;2023-08-21T08:32:25;8.50;;;3.85;;
41653;SDS011;68687;52.030;7.110;2023-08-21T08:34:50;12.98;;;4.65;;
41653;SDS011;68687;52.030;7.110;2023-08-21T08:37:17;11.73;;;3.97;;
41653;SDS011;68687;52.030;7.110;2023-08-21T08:39:42;10.95;;;3.67;;
41653;SDS011;68687;52.030;7.110;2023-08-21T08:42:07;13.60;;;5.00;;
41653;SDS011;68687;52.030;7.110;2023-08-21T08:44:36;9.98;;;4.05;;
41653;SDS011;68687;52.030;7.110;2023-08-21T08:47:03;7.18;;;4.15;;
41653;SDS011;68687;52.030;7.110;2023-08-21T08:49:28;7.05;;;4.15;;
41653;SDS011;68687;52.030;7.110;2023-08-21T08:51:55;7.85;;;4.15;;
41653;SDS011;68687;52.030;7.110;2023-08-21T08:54:23;9.43;;;4.57;;
41653;SDS011;68687;52.030;7.110;2023-08-21T08:56:50;9.55;;;4.82;;
41653;SDS011;68687;52.030;7.110;2023-08-21T08:59:16;11.02;;;4.70;;
41653;SDS011;68687;52.030;7.110;2023-08-21T09:01:42;9.23;;;4.18;;
41653;SDS011;68687;52.030;7.110;2023-08-21T09:04:08;12.65;;;4.60;;
41653;SDS011;68687;52.030;7.110;2023-08-21T09:06:33;11.02;;;4.28;;
41653;SDS011;68687;52.030;7.110;2023-08-21T09:08:59;8.13;;;4.55;;
41653;SDS011;68687;52.030;7.110;2023-08-21T09:11:25;10.95;;;4.72;;
41653;SDS011;68687;52.030;7.110;2023-08-21T09:13:51;7.70;;;4.40;;
41653;SDS011;68687;52.030;7.110;2023-08-21T09:16:18;8.20;;;4.57;;
41653;SDS011;68687;52.030;7.110;2023-08-21T09:18:51;10.70;;;4.70;;
41653;SDS011;68687;52.030;7.110;2023-08-21T09:21:21;8.23;;;4.30;;
41653;SDS011;68687;52.030;7.110;2023-08-21T09:23:48;7.35;;;4.28;;
41653;SDS011;68687;52.030;7.110;2023-08-21T09:26:21;7.60;;;4.32;;
41653;SDS011;68687;52.030;7.110;2023-08-21T09:28:47;9.15;;;5.15;;
41653;SDS011;68687;52.030;7.110;2023-08-21T09:31:14;7.47;;;4.55;;
41653;SDS011;68687;52.030;7.110;2023-08-21T09:33:39;6.60;;;4.30;;
41653;SDS011;68687;52.030;7.110;2023-08-21T09:36:05;8.98;;;3.65;;
41653;SDS011;68687;52.030;7.110;2023-08-21T09:38:30;5.72;;;3.67;;
41653;SDS011;68687;52.030;7.110;2023-08-21T09:40:58;9.00;;;4.05;;
41653;SDS011;68687;52.030;7.110;2023-08-21T09:43:24;6.07;;;3.05;;
41653;SDS011;68687;52.030;7.110;2023-08-21T09:45:51;8.40;;;3.50;;
41653;SDS011;68687;52.030;7.110;2023-08-21T09:48:19;5.57;;;3.42;;
41653;SDS011;68687;52.030;7.110;2023-08-21T09:50:46;10.82;;;3.45;;
41653;SDS011;68687;52.030;7.110;2023-08-21T09:53:12;11.93;;;3.88;;
41653;SDS011;68687;52.030;7.110;2023-08-21T09:55:37;6.40;;;3.15;;
41653;SDS011;68687;52.030;7.110;2023-08-21T09:58:04;5.65;;;3.60;;
41653;SDS011;68687;52.030;7.110;2023-08-21T10:00:30;9.48;;;4.03;;
41653;SDS011;68687;52.030;7.110;2023-08-21T10:03:00;7.72;;;4.10;;
41653;SDS011;68687;52.030;7.110;2023-08-21T10:05:31;6.90;;;4.20;;
41653;SDS011;68687;52.030;7.110;2023-08-21T10:07:58;6.90;;;3.83;;
41653;SDS011;68687;52.030;7.110;2023-08-21T10:10:26;9.38;;;3.70;;
41653;SDS011;68687;52.030;7.110;2023-08-21T10:12:53;6.57;;;3.60;;
41653;SDS011;68687;52.030;7.110;2023-08-21T10:15:18;6.05;;;3.50;;
41653;SDS011;68687;52.030;7.110;2023-08-21T10:17:43;11.60;;;4.25;;
41653;SDS011;68687;52.030;7.110;2023-08-21T10:20:09;7.78;;;4.10;;
41653;SDS011;68687;52.030;7.110;2023-08-21T10:22:38;8.73;;;3.42;;
41653;SDS011;68687;52.030;7.110;2023-08-21T10:25:16;6.70;;;4.13;;
41653;SDS011;68687;52.030;7.110;2023-08-21T10:27:54;6.00;;;3.85;;
41653;SDS011;68687;52.030;7.110;2023-08-21T10:32:48;8.52;;;4.25;;
41653;SDS011;68687;52.030;7.110;2023-08-21T10:35:14;13.05;;;4.70;;
41653;SDS011;68687;52.030;7.110;2023-08-21T10:40:37;8.60;;;3.97;;
41653;SDS011;68687;52.030;7.110;2023-08-21T10:46:10;9.93;;;4.25;;
41653;SDS011;68687;52.030;7.110;2023-08-21T10:48:36;7.68;;;3.83;;
41653;SDS011;68687;52.030;7.110;2023-08-21T10:51:04;7.07;;;4.15;;
41653;SDS011;68687;52.030;7.110;2023-08-21T10:53:34;5.03;;;3.60;;
41653;SDS011;68687;52.030;7.110;2023-08-21T10:56:03;10.88;;;3.78;;
41653;SDS011;68687;52.030;7.110;2023-08-21T10:58:47;8.52;;;4.45;;
41653;SDS011;68687;52.030;7.110;2023-08-21T11:01:16;6.00;;;4.15;;
41653;SDS011;68687;52.030;7.110;2023-08-21T11:03:44;10.07;;;4.07;;
41653;SDS011;68687;52.030;7.110;2023-08-21T11:06:11;9.57;;;4.30;;
41653;SDS011;68687;52.030;7.110;2023-08-21T11:08:36;6.55;;;4.38;;
41653;SDS011;68687;52.030;7.110;2023-08-21T11:11:02;7.25;;;4.20;;
41653;SDS011;68687;52.030;7.110;2023-08-21T11:13:29;10.23;;;4.20;;
41653;SDS011;68687;52.030;7.110;2023-08-21T11:16:02;6.40;;;4.25;;
41653;SDS011;68687;52.030;7.110;2023-08-21T11:18:36;9.77;;;4.20;;
41653;SDS011;68687;52.030;7.110;2023-08-21T11:21:07;7.35;;;4.15;;
41653;SDS011;68687;52.030;7.110;2023-08-21T11:23:34;6.72;;;4.68;;
41653;SDS011;68687;52.030;7.110;2023-08-21T11:26:01;9.25;;;5.28;;
41653;SDS011;68687;52.030;7.110;2023-08-21T11:28:28;9.20;;;5.18;;
41653;SDS011;68687;52.030;7.110;2023-08-21T11:30:55;7.15;;;4.90;;
41653;SDS011;68687;52.030;7.110;2023-08-21T11:33:21;7.45;;;5.10;;
41653;SDS011;68687;52.030;7.110;2023-08-21T11:35:47;5.05;;;4.50;;
41653;SDS011;68687;52.030;7.110;2023-08-21T11:38:19;9.05;;;4.40;;
41653;SDS011;68687;52.030;7.110;2023-08-21T11:40:59;5.63;;;4.40;;
41653;SDS011;68687;52.030;7.110;2023-08-21T11:43:36;7.00;;;4.40;;
41653;SDS011;68687;52.030;7.110;2023-08-21T11:46:06;6.75;;;4.25;;
41653;SDS011;68687;52.030;7.110;2023-08-21T11:48:32;6.95;;;4.20;;
41653;SDS011;68687;52.030;7.110;2023-08-21T11:50:58;8.73;;;4.47;;
41653;SDS011;68687;52.030;7.110;2023-08-21T11:53:34;6.20;;;4.00;;
41653;SDS011;68687;52.030;7.110;2023-08-21T11:56:10;6.82;;;4.03;;
41653;SDS011;68687;52.030;7.110;2023-08-21T11:58:41;7.25;;;3.78;;
41653;SDS011;68687;52.030;7.110;2023-08-21T12:01:10;9.30;;;4.07;;
41653;SDS011;68687;52.030;7.110;2023-08-21T12:03:36;6.68;;;3.83;;
41653;SDS011;68687;52.030;7.110;2023-08-21T12:06:06;9.82;;;4.07;;
41653;SDS011;68687;52.030;7.110;2023-08-21T12:08:33;8.25;;;5.22;;
41653;SDS011;68687;52.030;7.110;2023-08-21T12:10:58;8.18;;;3.88;;
41653;SDS011;68687;52.030;7.110;2023-08-21T12:13:24;8.80;;;4.43;;
41653;SDS011;68687;52.030;7.110;2023-08-21T12:15:49;8.03;;;4.17;;
41653;SDS011;68687;52.030;7.110;2023-08-21T12:18:14;7.93;;;4.20;;
41653;SDS011;68687;52.030;7.110;2023-08-21T12:20:40;6.82;;;4.38;;
41653;SDS011;68687;52.030;7.110;2023-08-21T12:23:05;8.38;;;4.50;;
41653;SDS011;68687;52.030;7.110;2023-08-21T12:25:30;8.50;;;4.43;;
41653;SDS011;68687;52.030;7.110;2023-08-21T12:27:56;8.20;;;4.50;;
41653;SDS011;68687;52.030;7.110;2023-08-21T12:30:22;6.88;;;3.88;;
41653;SDS011;68687;52.030;7.110;2023-08-21T12:32:47;7.28;;;3.67;;
41653;SDS011;68687;52.030;7.110;2023-08-21T12:35:13;6.82;;;3.85;;
41653;SDS011;68687;52.030;7.110;2023-08-21T12:37:38;7.18;;;3.83;;
41653;SDS011;68687;52.030;7.110;2023-08-21T12:40:03;7.35;;;4.10;;
41653;SDS011;68687;52.030;7.110;2023-08-21T12:42:29;8.48;;;4.20;;
41653;SDS011;68687;52.030;7.110;2023-08-21T12:44:55;8.50;;;4.00;;
41653;SDS011;68687;52.030;7.110;2023-08-21T12:47:20;7.85;;;4.03;;
41653;SDS011;68687;52.030;7.110;2023-08-21T12:49:45;8.40;;;3.40;;
41653;SDS011;68687;52.030;7.110;2023-08-21T12:52:10;7.40;;;3.60;;
41653;SDS011;68687;52.030;7.110;2023-08-21T12:54:37;5.18;;;3.40;;
41653;SDS011;68687;52.030;7.110;2023-08-21T12:57:03;6.45;;;3.10;;
41653;SDS011;68687;52.030;7.110;2023-08-21T12:59:29;4.63;;;3.70;;
41653;SDS011;68687;52.030;7.110;2023-08-21T13:01:54;5.63;;;3.33;;
41653;SDS011;68687;52.030;7.110;2023-08-21T13:04:19;4.93;;;3.60;;
41653;SDS011;68687;52.030;7.110;2023-08-21T13:06:45;5.25;;;4.00;;
41653;SDS011;68687;52.030;7.110;2023-08-21T13:09:10;5.35;;;3.63;;
41653;SDS011;68687;52.030;7.110;2023-08-21T13:11:35;4.78;;;4.10;;
41653;SDS011;68687;52.030;7.110;2023-08-21T13:14:00;3.92;;;3.55;;
41653;SDS011;68687;52.030;7.110;2023-08-21T13:16:26;4.68;;;3.30;;
41653;SDS011;68687;52.030;7.110;2023-08-21T13:18:51;4.40;;;3.83;;
41653;SDS011;68687;52.030;7.110;2023-08-21T13:21:16;3.70;;;3.40;;
41653;SDS011;68687;52.030;7.110;2023-08-21T13:23:42;4.32;;;3.72;;
41653;SDS011;68687;52.030;7.110;2023-08-21T13:26:07;5.50;;;3.60;;
41653;SDS011;68687;52.030;7.110;2023-08-21T13:28:32;7.55;;;3.60;;
41653;SDS011;68687;52.030;7.110;2023-08-21T13:30:59;4.45;;;3.45;;
41653;SDS011;68687;52.030;7.110;2023-08-21T13:33:24;5.68;;;3.45;;
41653;SDS011;68687;52.030;7.110;2023-08-21T13:35:49;3.92;;;3.50;;
41653;SDS011;68687;52.030;7.110;2023-08-21T13:38:15;5.43;;;3.38;;
41653;SDS011;68687;52.030;7.110;2023-08-21T13:40:41;4.95;;;3.80;;
41653;SDS011;68687;52.030;7.110;2023-08-21T13:43:06;6.88;;;3.65;;
41653;SDS011;68687;52.030;7.110;2023-08-21T13:45:34;7.30;;;4.10;;
41653;SDS011;68687;52.030;7.110;2023-08-21T13:48:00;7.75;;;3.60;;
41653;SDS011;68687;52.030;7.110;2023-08-21T13:50:25;5.57;;;3.42;;
41653;SDS011;68687;52.030;7.110;2023-08-21T13:52:50;7.13;;;3.90;;
41653;SDS011;68687;52.030;7.110;2023-08-21T13:55:16;4.37;;;3.70;;
41653;SDS011;68687;52.030;7.110;2023-08-21T13:57:42;6.53;;;3.25;;
41653;SDS011;68687;52.030;7.110;2023-08-21T14:00:08;4.88;;;3.35;;
41653;SDS011;68687;52.030;7.110;2023-08-21T14:02:37;5.88;;;3.50;;
41653;SDS011;68687;52.030;7.110;2023-08-21T14:05:03;4.78;;;3.08;;
41653;SDS011;68687;52.030;7.110;2023-08-21T14:07:29;3.13;;;2.72;;
41653;SDS011;68687;52.030;7.110;2023-08-21T14:09:55;7.45;;;3.28;;
41653;SDS011;68687;52.030;7.110;2023-08-21T14:12:24;4.70;;;3.10;;
41653;SDS011;68687;52.030;7.110;2023-08-21T14:14:49;4.00;;;2.83;;
41653;SDS011;68687;52.030;7.110;2023-08-21T14:17:15;5.75;;;2.75;;
41653;SDS011;68687;52.030;7.110;2023-08-21T14:19:40;4.00;;;2.83;;
41653;SDS011;68687;52.030;7.110;2023-08-21T14:22:06;4.30;;;2.80;;
41653;SDS011;68687;52.030;7.110;2023-08-21T14:24:32;4.40;;;3.13;;
41653;SDS011;68687;52.030;7.110;2023-08-21T14:26:57;5.50;;;3.53;;
41653;SDS011;68687;52.030;7.110;2023-08-21T14:29:22;8.48;;;2.92;;
41653;SDS011;68687;52.030;7.110;2023-08-21T14:31:48;4.43;;;3.03;;
41653;SDS011;68687;52.030;7.110;2023-08-21T14:34:13;5.70;;;3.03;;
41653;SDS011;68687;52.030;7.110;2023-08-21T14:36:40;6.85;;;4.85;;
41653;SDS011;68687;52.030;7.110;2023-08-21T14:39:06;5.28;;;3.25;;
41653;SDS011;68687;52.030;7.110;2023-08-21T14:41:31;5.60;;;2.70;;
41653;SDS011;68687;52.030;7.110;2023-08-21T14:43:56;4.22;;;3.05;;
41653;SDS011;68687;52.030;7.110;2023-08-21T14:46:22;7.07;;;3.10;;
41653;SDS011;68687;52.030;7.110;2023-08-21T14:48:47;8.57;;;3.28;;
41653;SDS011;68687;52.030;7.110;2023-08-21T14:51:12;8.77;;;3.50;;